createdAt,value
2023-04-21T00:01:59.893Z,30.50
2023-04-21T00:04:29.761Z,31.50
2023-04-21T00:06:58.365Z,29.75
2023-04-21T00:09:26.843Z,29.50
2023-04-21T00:11:55.365Z,31.50
2023-04-21T00:14:23.833Z,31.50
2023-04-21T00:16:53.680Z,29.50
2023-04-21T00:19:22.144Z,28.75
2023-04-21T00:21:50.617Z,30.00
2023-04-21T00:24:19.196Z,26.75
2023-04-21T00:26:47.572Z,32.75
2023-04-21T00:29:16.011Z,27.50
2023-04-21T00:31:44.469Z,31.25
2023-04-21T00:34:13.558Z,32.25
2023-04-21T00:36:42.204Z,30.75
2023-04-21T00:39:10.652Z,29.75
2023-04-21T00:41:40.940Z,28.00
2023-04-21T00:44:11.429Z,29.50
2023-04-21T00:46:39.923Z,30.75
2023-04-21T00:49:09.069Z,28.50
2023-04-21T00:51:38.442Z,28.50
2023-04-21T00:54:09.412Z,30.25
2023-04-21T00:56:37.935Z,28.00
2023-04-21T00:59:06.439Z,29.00
2023-04-21T01:01:38.359Z,29.25
2023-04-21T01:04:07.345Z,30.50
2023-04-21T01:06:36.424Z,30.25
2023-04-21T01:09:08.746Z,28.00
2023-04-21T01:11:37.293Z,28.50
2023-04-21T01:14:06.494Z,29.25
2023-04-21T01:16:35.435Z,28.00
2023-04-21T01:19:06.153Z,29.50
2023-04-21T01:21:44.131Z,30.75
2023-04-21T01:24:12.942Z,31.25
2023-04-21T01:26:41.550Z,26.25
2023-04-21T01:29:09.996Z,30.50
2023-04-21T01:31:38.402Z,29.75
2023-04-21T01:34:07.044Z,30.75
2023-04-21T01:36:38.106Z,30.75
2023-04-21T01:39:06.581Z,33.00
2023-04-21T01:41:35.076Z,29.00
2023-04-21T01:44:03.530Z,31.75
2023-04-21T01:46:32.188Z,33.00
2023-04-21T01:49:00.677Z,30.50
2023-04-21T01:51:29.044Z,34.25
2023-04-21T01:53:57.560Z,30.50
2023-04-21T01:56:25.984Z,30.25
2023-04-21T01:58:54.358Z,31.75
2023-04-21T02:01:22.823Z,31.75
2023-04-21T02:03:51.591Z,32.75
2023-04-21T02:06:20.116Z,29.00
2023-04-21T02:08:48.525Z,32.50
2023-04-21T02:11:17.049Z,29.00
2023-04-21T02:13:45.443Z,30.50
2023-04-21T02:16:14.362Z,32.00
2023-04-21T02:18:43.358Z,31.25
2023-04-21T02:21:11.755Z,30.25
2023-04-21T02:23:40.222Z,29.75
2023-04-21T02:26:08.824Z,30.75
2023-04-21T02:28:37.217Z,28.50
2023-04-21T02:31:05.936Z,31.25
2023-04-21T02:33:34.351Z,28.25
2023-04-21T02:36:03.277Z,26.75
2023-04-21T02:38:31.792Z,28.25
2023-04-21T02:41:00.309Z,26.50
2023-04-21T02:43:28.728Z,26.75
2023-04-21T02:45:57.367Z,28.00
2023-04-21T02:48:25.879Z,27.00
2023-04-21T02:50:54.737Z,27.75
2023-04-21T02:53:23.253Z,28.25
2023-04-21T02:55:51.644Z,24.00
2023-04-21T02:58:20.065Z,27.75
2023-04-21T03:00:48.453Z,29.00
2023-04-21T03:03:20.190Z,25.00
2023-04-21T03:05:48.833Z,28.25
2023-04-21T03:08:17.218Z,28.25
2023-04-21T03:10:45.622Z,29.50
2023-04-21T03:13:13.994Z,29.25
2023-04-21T03:15:42.618Z,32.00
2023-04-21T03:18:11.040Z,30.50
2023-04-21T03:20:39.543Z,28.25
2023-04-21T03:23:08.032Z,28.00
2023-04-21T03:25:36.617Z,29.50
2023-04-21T03:28:05.062Z,26.00
2023-04-21T03:30:33.566Z,28.00
2023-04-21T03:33:02.422Z,28.00
2023-04-21T03:35:32.383Z,28.50
2023-04-21T03:38:02.026Z,28.75
2023-04-21T03:40:32.197Z,28.25
2023-04-21T03:43:00.590Z,25.50
2023-04-21T03:45:28.963Z,28.00
2023-04-21T03:48:00.864Z,30.00
2023-04-21T03:50:30.107Z,29.75
2023-04-21T03:52:58.484Z,27.50
2023-04-21T03:55:26.988Z,26.50
2023-04-21T03:57:55.402Z,25.50
2023-04-21T04:00:23.930Z,27.50
2023-04-21T04:02:52.493Z,26.50
2023-04-21T04:05:21.069Z,25.50
2023-04-21T04:07:49.508Z,27.00
2023-04-21T04:10:17.963Z,29.00
2023-04-21T04:12:46.463Z,28.75
2023-04-21T04:15:14.973Z,26.00
2023-04-21T04:17:43.455Z,28.00
2023-04-21T04:20:11.996Z,29.50
2023-04-21T04:22:40.644Z,30.75
2023-04-21T04:25:09.569Z,29.50
2023-04-21T04:27:38.682Z,32.25
2023-04-21T04:30:08.053Z,29.50
2023-04-21T04:32:36.594Z,28.50
2023-04-21T04:35:05.748Z,27.50
2023-04-21T04:37:35.527Z,27.75
2023-04-21T04:40:06.658Z,30.50
2023-04-21T04:42:35.731Z,25.75
2023-04-21T04:45:04.553Z,26.50
2023-04-21T04:47:32.983Z,30.75
2023-04-21T04:50:01.563Z,31.25
2023-04-21T04:52:30.041Z,27.25
2023-04-21T04:54:58.594Z,30.75
2023-04-21T04:57:26.979Z,28.75
2023-04-21T04:59:58.741Z,28.25
2023-04-21T05:02:27.736Z,25.50
2023-04-21T05:04:56.285Z,30.00
2023-04-21T05:07:24.749Z,30.50
2023-04-21T05:09:53.181Z,29.25
2023-04-21T05:12:21.641Z,27.50
2023-04-21T05:14:50.049Z,29.50
2023-04-21T05:17:18.674Z,31.25
2023-04-21T05:19:47.045Z,29.25
2023-04-21T05:22:15.501Z,32.00
2023-04-21T05:24:45.050Z,31.00
2023-04-21T05:27:13.762Z,29.25
2023-04-21T05:29:42.417Z,30.75
2023-04-21T05:32:13.156Z,31.75
2023-04-21T05:34:43.869Z,30.75
2023-04-21T05:37:13.334Z,31.50
2023-04-21T05:39:41.702Z,33.00
2023-04-21T05:42:12.990Z,31.50
2023-04-21T05:44:41.610Z,30.50
2023-04-21T05:47:10.074Z,31.25
2023-04-21T05:49:38.486Z,30.50
2023-04-21T05:52:06.972Z,31.75
2023-04-21T05:54:35.476Z,32.25
2023-04-21T05:57:03.931Z,32.00
2023-04-21T05:59:32.308Z,31.50
2023-04-21T06:02:00.818Z,32.75
2023-04-21T06:04:29.554Z,31.00
2023-04-21T06:06:58.251Z,31.75
2023-04-21T06:09:26.755Z,30.25
2023-04-21T06:11:55.124Z,30.50
2023-04-21T06:14:23.530Z,30.50
2023-04-21T06:16:52.084Z,30.25
2023-04-21T06:19:20.456Z,29.00
2023-04-21T06:21:48.907Z,30.50
2023-04-21T06:24:17.744Z,31.75
2023-04-21T06:26:46.465Z,30.50
2023-04-21T06:29:14.878Z,28.00
2023-04-21T06:31:43.309Z,30.75
2023-04-21T06:34:11.734Z,30.00
2023-04-21T06:36:40.159Z,31.25
2023-04-21T06:39:08.556Z,31.25
2023-04-21T06:41:36.950Z,33.25
2023-04-21T06:44:05.375Z,30.75
2023-04-21T06:46:33.865Z,33.75
2023-04-21T06:49:02.327Z,29.75
2023-04-21T06:51:30.811Z,30.75
2023-04-21T06:53:59.237Z,32.00
2023-04-21T06:56:31.696Z,33.50
2023-04-21T06:59:00.105Z,30.25
2023-04-21T07:01:28.590Z,32.00
2023-04-21T07:03:57.187Z,33.75
2023-04-21T07:06:25.693Z,31.00
2023-04-21T07:08:54.177Z,32.00
2023-04-21T07:11:22.569Z,32.00
2023-04-21T07:13:50.965Z,30.50
2023-04-21T07:16:19.411Z,31.75
2023-04-21T07:18:47.843Z,29.25
2023-04-21T07:21:16.319Z,31.00
2023-04-21T07:23:45.254Z,31.50
2023-04-21T07:26:14.123Z,29.75
2023-04-21T07:28:42.883Z,30.00
2023-04-21T07:31:11.370Z,28.75
2023-04-21T07:33:39.764Z,29.00
2023-04-21T07:36:08.449Z,33.25
2023-04-21T07:38:37.015Z,32.50
2023-04-21T07:41:06.360Z,31.25
2023-04-21T07:43:34.721Z,32.50
2023-04-21T07:46:03.366Z,33.25
2023-04-21T07:48:32.134Z,31.75
2023-04-21T07:51:01.462Z,34.00
2023-04-21T07:53:29.902Z,32.75
2023-04-21T07:55:58.365Z,30.25
2023-04-21T07:58:26.834Z,33.00
2023-04-21T08:00:55.622Z,32.75
2023-04-21T08:03:24.698Z,30.00
2023-04-21T08:05:53.980Z,32.25
2023-04-21T08:08:23.023Z,31.75
2023-04-21T08:10:51.641Z,31.75
2023-04-21T08:13:21.962Z,33.50
2023-04-21T08:15:50.449Z,30.50
2023-04-21T08:18:22.350Z,31.50
2023-04-21T08:20:51.505Z,29.00
2023-04-21T08:23:20.836Z,32.25
2023-04-21T08:25:49.257Z,33.25
2023-04-21T08:28:17.710Z,30.75
2023-04-21T08:30:46.112Z,31.75
2023-04-21T08:33:14.888Z,30.50
2023-04-21T08:35:55.044Z,28.75
2023-04-21T08:38:30.041Z,31.25
2023-04-21T08:41:00.973Z,30.50
2023-04-21T08:43:30.740Z,31.75
2023-04-21T08:46:01.317Z,32.00
2023-04-21T08:48:32.865Z,30.25
2023-04-21T08:51:01.474Z,29.00
2023-04-21T08:53:30.221Z,31.50
2023-04-21T08:56:10.632Z,29.75
2023-04-21T08:58:40.201Z,30.75
2023-04-21T09:01:08.734Z,32.75
2023-04-21T09:03:37.486Z,32.00
2023-04-21T09:06:08.979Z,33.50
2023-04-21T09:08:44.838Z,29.50
2023-04-21T09:11:16.736Z,32.00
2023-04-21T09:13:45.425Z,31.75
2023-04-21T09:16:23.109Z,30.75
2023-04-21T09:18:52.398Z,30.25
2023-04-21T09:21:22.012Z,28.75
2023-04-21T09:23:56.546Z,32.50
2023-04-21T09:26:25.293Z,31.50
2023-04-21T09:28:54.746Z,33.50
2023-04-21T09:31:30.114Z,32.50
2023-04-21T09:34:00.857Z,31.75
2023-04-21T09:36:31.329Z,29.25
2023-04-21T09:41:35.758Z,28.50
2023-04-21T09:44:05.435Z,30.75
2023-04-21T09:46:38.247Z,30.50
2023-04-21T09:49:07.568Z,30.75
2023-04-21T09:52:05.937Z,31.00
2023-04-21T09:54:32.731Z,30.75
2023-04-21T09:57:05.902Z,31.75
2023-04-21T09:59:37.976Z,29.00
2023-04-21T10:02:08.152Z,30.75
2023-04-21T10:04:42.227Z,34.25
2023-04-21T10:07:12.108Z,32.25
2023-04-21T10:09:47.459Z,29.75
2023-04-21T10:12:16.971Z,31.25
2023-04-21T10:14:45.443Z,32.50
2023-04-21T10:17:14.236Z,32.50
2023-04-21T10:20:07.719Z,30.25
2023-04-21T10:22:37.222Z,31.00
2023-04-21T10:25:10.836Z,33.00
2023-04-21T10:27:42.716Z,31.50
2023-04-21T10:30:23.758Z,31.50
2023-04-21T10:33:05.529Z,34.00
2023-04-21T10:36:03.110Z,31.25
2023-04-21T10:38:42.707Z,32.25
2023-04-21T10:41:30.252Z,34.00
2023-04-21T10:44:02.368Z,34.50
2023-04-21T10:46:35.915Z,32.25
2023-04-21T10:49:10.936Z,32.25
2023-04-21T10:52:08.187Z,33.50
2023-04-21T10:54:42.625Z,32.25
2023-04-21T10:57:13.909Z,34.75
2023-04-21T10:59:42.741Z,34.00
2023-04-21T11:02:19.293Z,34.50
2023-04-21T11:04:53.153Z,34.75
2023-04-21T11:07:24.082Z,34.25
2023-04-21T11:10:03.175Z,34.75
2023-04-21T11:12:38.238Z,33.75
2023-04-21T11:15:09.398Z,34.25
2023-04-21T11:17:44.460Z,36.25
2023-04-21T11:20:13.042Z,36.00
2023-04-21T11:22:41.517Z,35.00
2023-04-21T11:25:22.039Z,34.25
2023-04-21T11:27:58.442Z,35.75
2023-04-21T11:30:35.167Z,35.25
2023-04-21T11:33:04.074Z,33.50
2023-04-21T11:35:33.314Z,35.25
2023-04-21T11:38:07.018Z,34.75
2023-04-21T11:40:50.939Z,37.25
2023-04-21T11:43:21.746Z,36.25
2023-04-21T11:45:52.044Z,37.75
2023-04-21T11:48:23.220Z,39.75
2023-04-21T11:50:52.184Z,37.25
2023-04-21T11:53:21.105Z,36.50
2023-04-21T11:55:49.713Z,40.25
2023-04-21T11:58:18.809Z,37.00
2023-04-21T12:00:47.500Z,37.25
2023-04-21T12:03:16.141Z,37.50
2023-04-21T12:05:44.845Z,36.50
2023-04-21T12:08:17.454Z,36.00
2023-04-21T12:10:47.590Z,34.50
2023-04-21T12:13:24.478Z,33.25
2023-04-21T12:15:52.942Z,34.00
2023-04-21T12:18:21.455Z,33.00
2023-04-21T12:20:54.031Z,32.00
2023-04-21T12:23:22.419Z,34.00
2023-04-21T12:25:52.232Z,34.50
2023-04-21T12:28:20.605Z,31.50
2023-04-21T12:30:49.039Z,33.50
2023-04-21T12:33:17.502Z,33.50
2023-04-21T12:35:46.036Z,34.00
2023-04-21T12:38:14.437Z,32.25
2023-04-21T12:40:42.875Z,31.75
2023-04-21T12:43:11.311Z,33.25
2023-04-21T12:45:40.099Z,33.75
2023-04-21T12:48:08.678Z,34.25
2023-04-21T12:50:37.271Z,32.50
2023-04-21T12:53:05.663Z,31.50
2023-04-21T12:55:37.558Z,35.00
2023-04-21T12:58:06.071Z,33.75
2023-04-21T13:00:36.826Z,33.50
2023-04-21T13:03:05.738Z,32.50
2023-04-21T13:05:34.242Z,34.25
2023-04-21T13:08:02.781Z,34.00
2023-04-21T13:10:31.661Z,34.00
2023-04-21T13:13:00.028Z,32.00
2023-04-21T13:15:28.547Z,33.75
2023-04-21T13:17:57.189Z,34.25
2023-04-21T13:20:25.902Z,32.00
2023-04-21T13:22:54.667Z,33.25
2023-04-21T13:25:23.108Z,32.50
2023-04-21T13:27:53.366Z,34.75
2023-04-21T13:30:21.903Z,33.25
2023-04-21T13:32:51.254Z,34.25
2023-04-21T13:35:19.906Z,34.00
2023-04-21T13:37:49.189Z,32.00
2023-04-21T13:40:18.788Z,34.75
2023-04-21T13:42:47.353Z,32.25
2023-04-21T13:45:15.769Z,34.25
2023-04-21T13:47:45.223Z,31.25
2023-04-21T13:50:13.772Z,34.50
2023-04-21T13:52:42.266Z,33.50
2023-04-21T13:55:12.270Z,34.00
2023-04-21T13:57:40.660Z,34.50
2023-04-21T14:00:13.698Z,33.25
2023-04-21T14:02:42.999Z,34.50
2023-04-21T14:05:11.744Z,34.25
2023-04-21T14:07:40.394Z,33.00
2023-04-21T14:10:09.345Z,33.50
2023-04-21T14:12:37.786Z,36.00
2023-04-21T14:15:07.855Z,35.75
2023-04-21T14:17:36.316Z,35.25
2023-04-21T14:20:05.394Z,35.50
2023-04-21T14:22:33.850Z,34.75
2023-04-21T14:25:02.504Z,33.75
2023-04-21T14:27:31.716Z,32.75
2023-04-21T14:30:01.217Z,31.50
2023-04-21T14:32:29.902Z,33.50
2023-04-21T14:35:00.187Z,32.00
2023-04-21T14:37:28.627Z,33.75
2023-04-21T14:39:57.077Z,33.75
2023-04-21T14:42:25.472Z,32.25
2023-04-21T14:44:53.928Z,32.25
2023-04-21T14:47:23.612Z,34.25
2023-04-21T14:49:55.340Z,32.75
2023-04-21T14:52:27.887Z,31.50
2023-04-21T14:54:56.361Z,32.50
2023-04-21T14:57:25.075Z,34.75
2023-04-21T14:59:54.561Z,34.25
2023-04-21T15:02:23.759Z,31.50
2023-04-21T15:04:52.367Z,35.50
2023-04-21T15:07:24.350Z,32.00
2023-04-21T15:09:53.316Z,34.50
2023-04-21T15:12:22.213Z,33.50
2023-04-21T15:14:50.708Z,31.50
2023-04-21T15:17:19.362Z,31.50
2023-04-21T15:19:47.745Z,32.50
2023-04-21T15:22:16.372Z,31.00
2023-04-21T15:24:44.878Z,33.75
2023-04-21T15:27:13.342Z,35.50
2023-04-21T15:29:41.928Z,35.50
2023-04-21T15:32:10.835Z,31.25
2023-04-21T15:34:39.240Z,33.00
2023-04-21T15:37:07.692Z,31.75
2023-04-21T15:39:36.535Z,34.50
2023-04-21T15:42:06.026Z,33.00
2023-04-21T15:44:34.934Z,32.00
2023-04-21T15:47:03.489Z,34.00
2023-04-21T15:49:32.042Z,32.75
2023-04-21T15:52:01.053Z,32.25
2023-04-21T15:54:29.526Z,34.50
2023-04-21T15:56:58.647Z,32.00
2023-04-21T15:59:27.662Z,33.50
2023-04-21T16:01:58.106Z,35.75
2023-04-21T16:04:26.840Z,31.00
2023-04-21T16:06:55.447Z,33.50
2023-04-21T16:09:24.678Z,33.75
2023-04-21T16:11:53.202Z,32.00
2023-04-21T16:14:21.705Z,36.00
2023-04-21T16:16:50.302Z,34.50
2023-04-21T16:19:18.915Z,33.25
2023-04-21T16:21:47.418Z,30.75
2023-04-21T16:24:15.912Z,28.25
2023-04-21T16:26:44.385Z,28.00
2023-04-21T16:29:12.864Z,28.25
2023-04-21T16:31:41.365Z,29.25
2023-04-21T16:34:09.947Z,28.50
2023-04-21T16:36:38.382Z,27.50
2023-04-21T16:39:07.649Z,28.50
2023-04-21T16:41:36.136Z,26.50
2023-04-21T16:44:04.565Z,27.75
2023-04-21T16:46:33.026Z,25.00
2023-04-21T16:49:01.701Z,26.75
2023-04-21T16:51:30.142Z,26.25
2023-04-21T16:53:58.615Z,25.00
2023-04-21T16:56:27.140Z,28.25
2023-04-21T16:58:57.269Z,30.00
2023-04-21T17:01:25.750Z,25.75
2023-04-21T17:03:54.244Z,26.75
2023-04-21T17:06:22.882Z,27.25
2023-04-21T17:08:51.440Z,26.75
2023-04-21T17:11:20.391Z,26.50
2023-04-21T17:13:48.784Z,26.75
2023-04-21T17:16:17.887Z,24.25
2023-04-21T17:18:46.315Z,29.00
2023-04-21T17:21:14.797Z,25.75
2023-04-21T17:23:43.216Z,25.75
2023-04-21T17:26:13.140Z,23.25
2023-04-21T17:28:41.962Z,23.50
2023-04-21T17:31:15.923Z,25.00
2023-04-21T17:33:45.959Z,24.50
2023-04-21T17:36:15.104Z,26.00
2023-04-21T17:38:43.901Z,25.00
2023-04-21T17:41:12.491Z,25.50
2023-04-21T17:43:40.975Z,27.25
2023-04-21T17:46:09.542Z,27.00
2023-04-21T17:48:38.558Z,26.00
2023-04-21T17:51:07.069Z,26.25
2023-04-21T17:53:35.464Z,23.25
2023-04-21T17:56:03.922Z,26.75
2023-04-21T17:58:32.472Z,25.00
2023-04-21T18:01:00.926Z,25.25
2023-04-21T18:03:29.780Z,25.75
2023-04-21T18:05:58.425Z,24.50
2023-04-21T18:08:27.378Z,26.50
2023-04-21T18:10:58.868Z,29.00
2023-04-21T18:13:27.312Z,27.50
2023-04-21T18:15:55.754Z,27.25
2023-04-21T18:18:24.390Z,26.50
2023-04-21T18:20:52.896Z,26.00
2023-04-21T18:23:21.409Z,28.75
2023-04-21T18:25:49.883Z,28.00
2023-04-21T18:28:18.401Z,28.50
2023-04-21T18:30:46.882Z,29.75
2023-04-21T18:33:15.386Z,28.00
2023-04-21T18:35:44.002Z,26.75
2023-04-21T18:38:14.112Z,28.25
2023-04-21T18:40:42.819Z,27.00
2023-04-21T18:43:11.855Z,28.00
2023-04-21T18:45:40.689Z,28.25
2023-04-21T18:48:09.628Z,27.25
2023-04-21T18:50:40.889Z,26.75
2023-04-21T18:53:10.697Z,31.25
2023-04-21T18:55:39.151Z,22.25
2023-04-21T18:58:07.970Z,27.75
2023-04-21T19:00:39.842Z,27.25
2023-04-21T19:03:08.600Z,30.00
2023-04-21T19:05:38.606Z,28.50
2023-04-21T19:08:07.547Z,29.75
2023-04-21T19:10:36.474Z,26.50
2023-04-21T19:13:05.544Z,27.25
2023-04-21T19:15:34.316Z,25.25
2023-04-21T19:18:02.731Z,29.00
2023-04-21T19:20:32.135Z,25.50
2023-04-21T19:23:00.759Z,28.75
2023-04-21T19:25:29.286Z,28.75
2023-04-21T19:27:57.954Z,26.25
2023-04-21T19:30:26.393Z,26.25
2023-04-21T19:32:56.421Z,23.50
2023-04-21T19:35:25.132Z,26.00
2023-04-21T19:37:53.534Z,23.75
2023-04-21T19:40:23.037Z,28.75
2023-04-21T19:42:51.510Z,27.75
2023-04-21T19:45:19.922Z,25.75
2023-04-21T19:47:48.733Z,26.25
2023-04-21T19:50:17.213Z,26.75
2023-04-21T19:52:47.469Z,25.00
2023-04-21T19:55:16.156Z,28.50
2023-04-21T19:57:44.527Z,30.00
2023-04-21T20:00:13.718Z,29.00
2023-04-21T20:02:42.396Z,27.00
2023-04-21T20:05:11.325Z,28.00
2023-04-21T20:07:40.773Z,28.25
2023-04-21T20:10:10.353Z,25.25
2023-04-21T20:12:38.808Z,25.25
2023-04-21T20:15:09.183Z,23.25
2023-04-21T20:17:37.841Z,23.00
2023-04-21T20:20:07.863Z,26.00
2023-04-21T20:22:36.981Z,21.50
2023-04-21T20:25:05.815Z,18.00
2023-04-21T20:27:34.695Z,18.00
2023-04-21T20:30:03.130Z,18.25
2023-04-21T20:32:31.585Z,20.25
2023-04-21T20:35:00.612Z,20.00
2023-04-21T20:37:29.393Z,19.25
2023-04-21T20:40:01.361Z,15.75
2023-04-21T20:42:29.768Z,20.50
2023-04-21T20:44:58.148Z,19.00
2023-04-21T20:47:26.531Z,20.00
2023-04-21T20:49:55.711Z,24.25
2023-04-21T20:52:24.175Z,20.00
2023-04-21T20:54:52.557Z,19.00
2023-04-21T20:57:21.086Z,19.00
2023-04-21T20:59:49.630Z,17.25
2023-04-21T21:02:18.057Z,20.50
2023-04-21T21:04:48.628Z,16.50
2023-04-21T21:07:17.101Z,17.75
2023-04-21T21:09:47.259Z,17.25
2023-04-21T21:12:15.648Z,17.00
2023-04-21T21:14:44.139Z,17.00
2023-04-21T21:17:13.856Z,18.25
2023-04-21T21:19:42.465Z,16.50
2023-04-21T21:22:11.107Z,16.00
2023-04-21T21:24:39.575Z,17.75
2023-04-21T21:27:09.061Z,18.50
2023-04-21T21:29:37.855Z,19.25
2023-04-21T21:32:06.542Z,14.75
2023-04-21T21:34:35.053Z,16.25
2023-04-21T21:37:03.442Z,15.75
2023-04-21T21:39:31.804Z,16.25
2023-04-21T21:42:00.189Z,17.75
2023-04-21T21:44:28.570Z,15.75
2023-04-21T21:46:57.023Z,17.25
2023-04-21T21:49:25.427Z,12.50
2023-04-21T21:51:55.518Z,18.50
2023-04-21T21:54:23.939Z,17.75
2023-04-21T21:56:52.390Z,16.25
2023-04-21T21:59:21.682Z,16.00
2023-04-21T22:01:50.215Z,14.50
2023-04-21T22:04:18.764Z,15.50
2023-04-21T22:06:47.160Z,15.00
2023-04-21T22:09:15.528Z,17.00
2023-04-21T22:11:44.020Z,12.50
2023-04-21T22:14:22.830Z,16.75
2023-04-21T22:16:53.701Z,14.75
2023-04-21T22:19:23.598Z,18.75
2023-04-21T22:21:52.316Z,16.00
2023-04-21T22:24:20.763Z,17.50
2023-04-21T22:26:49.153Z,18.25
2023-04-21T22:29:18.098Z,17.25
2023-04-21T22:31:46.934Z,14.75
2023-04-21T22:34:20.472Z,15.75
2023-04-21T22:36:48.916Z,20.50
2023-04-21T22:39:18.049Z,15.25
2023-04-21T22:41:46.856Z,14.25
2023-04-21T22:44:15.520Z,17.25
2023-04-21T22:46:44.093Z,16.25
2023-04-21T22:49:12.517Z,16.00
2023-04-21T22:51:41.293Z,17.50
2023-04-21T22:54:09.677Z,19.00
2023-04-21T22:56:38.343Z,17.25
2023-04-21T22:59:07.716Z,16.75
2023-04-21T23:01:36.085Z,17.00
2023-04-21T23:04:04.693Z,14.75
2023-04-21T23:06:33.791Z,21.50
2023-04-21T23:09:02.846Z,16.75
2023-04-21T23:11:31.579Z,16.75
2023-04-21T23:13:59.979Z,15.25
2023-04-21T23:16:28.516Z,22.25
2023-04-21T23:18:56.920Z,18.00
2023-04-21T23:21:25.377Z,16.00
2023-04-21T23:23:53.775Z,20.50
2023-04-21T23:26:22.682Z,18.25
2023-04-21T23:28:51.176Z,19.25
2023-04-21T23:31:20.100Z,20.00
2023-04-21T23:33:48.652Z,20.50
2023-04-21T23:36:17.068Z,20.50
2023-04-21T23:38:45.443Z,20.25
2023-04-21T23:41:13.900Z,21.50
2023-04-21T23:43:42.312Z,20.50
2023-04-21T23:46:10.746Z,22.50
2023-04-21T23:48:39.195Z,19.50
2023-04-21T23:51:08.248Z,20.50
2023-04-21T23:53:36.749Z,21.75
2023-04-21T23:56:05.205Z,20.00
2023-04-21T23:58:33.578Z,23.75
